createdAt,value
2019-06-26T00:00:59.063Z,942.7
2019-06-26T00:02:03.112Z,942.6
2019-06-26T00:03:04.510Z,942.7
2019-06-26T00:04:40.310Z,942.6
2019-06-26T00:05:06.314Z,942.7
2019-06-26T00:06:21.797Z,942.7
2019-06-26T00:07:05.736Z,942.6
2019-06-26T00:08:07.060Z,942.6
2019-06-26T00:09:08.216Z,942.7
2019-06-26T00:10:18.593Z,942.6
2019-06-26T00:13:06.475Z,942.6
2019-06-26T00:14:10.665Z,942.6
2019-06-26T00:15:07.718Z,942.7
2019-06-26T00:16:08.845Z,942.7
2019-06-26T00:17:09.988Z,942.6
2019-06-26T00:19:00.627Z,942.6
2019-06-26T00:19:11.254Z,942.6
2019-06-26T00:20:15.869Z,942.6
2019-06-26T00:21:15.645Z,942.5
2019-06-26T00:22:20.941Z,942.6
2019-06-26T00:23:17.686Z,942.6
2019-06-26T00:24:15.844Z,942.6
2019-06-26T00:25:16.975Z,942.6
2019-06-26T00:26:21.299Z,942.5
2019-06-26T00:27:19.382Z,942.6
2019-06-26T00:28:20.500Z,942.6
2019-06-26T00:30:42.966Z,942.6
2019-06-26T00:32:23.977Z,942.7
2019-06-26T00:33:22.381Z,942.5
2019-06-26T00:34:20.437Z,942.7
2019-06-26T00:35:21.563Z,942.7
2019-06-26T00:36:23.206Z,942.6
2019-06-26T00:37:23.292Z,942.5
2019-06-26T00:38:31.267Z,942.6
2019-06-26T00:39:33.411Z,942.6
2019-06-26T00:40:29.383Z,942.6
2019-06-26T00:41:30.180Z,942.6
2019-06-26T00:42:28.265Z,942.6
2019-06-26T00:43:41.747Z,942.5
2019-06-26T00:44:33.345Z,942.6
2019-06-26T00:45:42.769Z,942.5
2019-06-26T00:46:36.231Z,942.4
2019-06-26T00:47:40.935Z,942.4
2019-06-26T00:48:33.961Z,942.5
2019-06-26T00:49:53.228Z,942.5
2019-06-26T00:50:42.879Z,942.5
2019-06-26T00:51:36.904Z,942.6
2019-06-26T00:52:38.052Z,942.5
2019-06-26T00:53:41.861Z,942.5
2019-06-26T00:54:39.916Z,942.6
2019-06-26T00:55:49.108Z,942.6
2019-06-26T00:56:42.122Z,942.5
2019-06-26T00:57:43.265Z,942.5
2019-06-26T00:58:44.387Z,942.5
2019-06-26T00:59:45.518Z,942.5
2019-06-26T01:00:46.654Z,942.5
2019-06-26T01:01:47.777Z,942.6
2019-06-26T01:02:52.584Z,942.5
2019-06-26T01:03:50.039Z,942.5
2019-06-26T01:04:51.147Z,942.5
2019-06-26T01:05:55.779Z,942.5
2019-06-26T01:06:53.346Z,942.5
2019-06-26T01:07:53.449Z,942.6
2019-06-26T01:08:54.590Z,942.5
2019-06-26T01:09:58.163Z,942.5
2019-06-26T01:10:57.223Z,942.6
2019-06-26T01:12:08.029Z,942.5
2019-06-26T01:12:59.054Z,942.6
2019-06-26T01:15:20.917Z,942.6
2019-06-26T01:17:17.877Z,942.6
2019-06-26T01:19:55.959Z,942.6
2019-06-26T01:22:48.585Z,942.6
2019-06-26T01:25:44.439Z,942.6
2019-06-26T01:26:44.763Z,942.7
2019-06-26T01:27:45.848Z,942.6
2019-06-26T01:28:46.993Z,942.6
2019-06-26T01:29:48.119Z,942.6
2019-06-26T01:30:51.970Z,942.6
2019-06-26T01:31:50.024Z,942.6
2019-06-26T01:32:51.162Z,942.6
2019-06-26T01:33:52.304Z,942.6
2019-06-26T01:34:56.309Z,942.6
2019-06-26T01:35:57.376Z,942.6
2019-06-26T01:36:58.197Z,942.6
2019-06-26T01:37:59.030Z,942.6
2019-06-26T01:39:00.398Z,942.6
2019-06-26T01:39:58.451Z,942.5
2019-06-26T01:40:59.583Z,942.6
2019-06-26T01:42:00.708Z,942.6
2019-06-26T01:43:01.951Z,942.6
2019-06-26T01:44:13.988Z,942.6
2019-06-26T01:45:06.619Z,942.5
2019-06-26T01:46:06.919Z,942.6
2019-06-26T01:47:08.685Z,942.5
2019-06-26T01:48:06.790Z,942.5
2019-06-26T01:49:07.944Z,942.5
2019-06-26T01:50:11.762Z,942.6
2019-06-26T01:51:10.326Z,942.6
2019-06-26T01:52:10.400Z,942.6
2019-06-26T01:53:14.803Z,942.5
2019-06-26T01:54:13.213Z,942.6
2019-06-26T01:55:22.342Z,942.6
2019-06-26T01:56:15.349Z,942.6
2019-06-26T01:57:19.125Z,942.5
2019-06-26T01:58:17.233Z,942.6
2019-06-26T01:59:18.376Z,942.6
2019-06-26T02:00:19.511Z,942.6
2019-06-26T02:01:20.635Z,942.5
2019-06-26T02:02:21.764Z,942.6
2019-06-26T02:03:22.896Z,942.5
2019-06-26T02:04:26.775Z,942.5
2019-06-26T02:05:32.554Z,942.5
2019-06-26T02:06:25.566Z,942.5
2019-06-26T02:07:26.797Z,942.5
2019-06-26T02:08:26.876Z,942.4
2019-06-26T02:09:32.088Z,942.4
2019-06-26T02:10:29.686Z,942.5
2019-06-26T02:11:30.273Z,941.8
2019-06-26T02:12:30.346Z,942.5
2019-06-26T02:13:31.472Z,942.5
2019-06-26T02:14:50.527Z,942.5
2019-06-26T02:15:33.457Z,942.5
2019-06-26T02:16:34.580Z,942.5
2019-06-26T02:17:38.337Z,942.5
2019-06-26T02:18:36.398Z,942.5
2019-06-26T02:19:37.548Z,942.5
2019-06-26T02:20:41.802Z,942.5
2019-06-26T02:21:40.359Z,942.4
2019-06-26T02:22:43.445Z,942.4
2019-06-26T02:23:41.502Z,942.5
2019-06-26T02:24:46.138Z,942.6
2019-06-26T02:25:45.931Z,942.5
2019-06-26T02:27:21.706Z,942.4
2019-06-26T02:29:40.927Z,942.6
2019-06-26T02:32:36.694Z,942.6
2019-06-26T02:33:37.745Z,942.6
2019-06-26T02:34:38.867Z,942.6
2019-06-26T02:35:40.026Z,942.6
2019-06-26T02:36:41.161Z,942.7
2019-06-26T02:37:44.993Z,942.6
2019-06-26T02:38:43.049Z,942.7
2019-06-26T02:39:54.818Z,942.7
2019-06-26T02:40:44.821Z,942.7
2019-06-26T02:41:48.936Z,942.7
2019-06-26T02:42:47.633Z,942.7
2019-06-26T02:43:47.520Z,942.6
2019-06-26T02:44:53.572Z,942.7
2019-06-26T02:45:49.266Z,942.7
2019-06-26T02:47:19.103Z,942.6
2019-06-26T02:47:53.998Z,942.7
2019-06-26T02:48:54.790Z,942.7
2019-06-26T02:49:55.554Z,942.6
2019-06-26T02:50:53.624Z,942.7
2019-06-26T02:51:57.743Z,942.7
2019-06-26T02:52:58.020Z,942.6
2019-06-26T02:53:57.010Z,942.7
2019-06-26T02:55:01.764Z,942.7
2019-06-26T02:55:58.849Z,942.5
2019-06-26T02:56:59.974Z,942.7
2019-06-26T02:58:01.104Z,942.7
2019-06-26T02:59:02.238Z,942.7
2019-06-26T03:00:24.821Z,941.4
2019-06-26T03:01:04.726Z,942.7
2019-06-26T03:02:05.859Z,942.7
2019-06-26T03:03:06.984Z,942.7
2019-06-26T03:06:04.039Z,942.7
2019-06-26T03:08:59.828Z,942.7
2019-06-26T03:10:00.344Z,942.7
2019-06-26T03:11:01.472Z,942.7
2019-06-26T03:12:05.336Z,942.7
2019-06-26T03:13:06.110Z,942.7
2019-06-26T03:14:04.168Z,942.7
2019-06-26T03:15:15.806Z,942.7
2019-06-26T03:16:09.020Z,942.6
2019-06-26T03:17:13.372Z,942.7
2019-06-26T03:18:08.902Z,942.8
2019-06-26T03:19:09.020Z,942.7
2019-06-26T03:20:12.910Z,942.7
2019-06-26T03:21:13.648Z,942.8
2019-06-26T03:22:10.723Z,942.7
2019-06-26T03:23:11.848Z,942.6
2019-06-26T03:24:16.446Z,942.6
2019-06-26T03:25:31.918Z,942.7
2019-06-26T03:26:15.851Z,942.7
2019-06-26T03:27:17.010Z,942.8
2019-06-26T03:28:18.134Z,942.7
2019-06-26T03:29:19.268Z,942.7
2019-06-26T03:30:30.956Z,942.7
2019-06-26T03:31:20.966Z,942.8
2019-06-26T03:32:31.747Z,942.7
2019-06-26T03:33:22.754Z,942.8
2019-06-26T03:34:23.887Z,942.8
2019-06-26T03:35:39.870Z,942.8
2019-06-26T03:36:25.647Z,942.8
2019-06-26T03:37:26.801Z,942.9
2019-06-26T03:38:31.482Z,942.8
2019-06-26T03:42:25.492Z,943
2019-06-26T03:43:26.008Z,943
2019-06-26T03:44:27.132Z,943
2019-06-26T03:45:36.128Z,943
2019-06-26T03:46:29.135Z,943
2019-06-26T03:47:33.168Z,943.1
2019-06-26T03:48:33.716Z,943
2019-06-26T03:49:32.276Z,943
2019-06-26T03:50:35.325Z,942.9
2019-06-26T03:51:33.385Z,942.9
2019-06-26T03:52:34.507Z,942.9
2019-06-26T03:53:34.955Z,942.9
2019-06-26T03:54:36.084Z,943.1
2019-06-26T03:55:40.539Z,943.1
2019-06-26T03:56:38.598Z,943
2019-06-26T03:57:43.241Z,943.1
2019-06-26T03:58:43.009Z,943
2019-06-26T03:59:41.074Z,943.1
2019-06-26T04:00:42.192Z,943.1
2019-06-26T04:01:43.332Z,943.2
2019-06-26T04:02:44.475Z,943.1
2019-06-26T04:03:48.339Z,943.1
2019-06-26T04:04:46.411Z,943.1
2019-06-26T04:05:47.536Z,943.1
2019-06-26T04:06:48.661Z,943
2019-06-26T04:07:58.004Z,942.9
2019-06-26T04:08:51.033Z,942.9
2019-06-26T04:09:52.141Z,943
2019-06-26T04:11:10.619Z,943.2
2019-06-26T04:11:54.549Z,943.2
2019-06-26T04:12:55.727Z,943.2
2019-06-26T04:16:36.027Z,943.2
2019-06-26T04:16:53.881Z,943.2
2019-06-26T04:17:54.835Z,943.1
2019-06-26T04:18:59.565Z,943.1
2019-06-26T04:20:14.067Z,943.1
2019-06-26T04:20:58.003Z,943.1
2019-06-26T04:22:02.083Z,943.1
2019-06-26T04:23:00.140Z,943.2
2019-06-26T04:24:07.753Z,943.2
2019-06-26T04:25:05.045Z,943
2019-06-26T04:26:03.148Z,943.1
2019-06-26T04:27:04.274Z,943
2019-06-26T04:30:10.070Z,943.2
2019-06-26T04:31:23.705Z,943.2
2019-06-26T04:32:08.927Z,943.2
2019-06-26T04:33:07.352Z,943.2
2019-06-26T04:34:09.814Z,943.2
2019-06-26T04:35:07.880Z,943.2
2019-06-26T04:36:12.487Z,943.1
2019-06-26T04:37:09.541Z,943.2
2019-06-26T04:38:10.677Z,943.3
2019-06-26T04:39:11.827Z,943.3
2019-06-26T04:40:12.951Z,943.3
2019-06-26T04:43:19.238Z,943.4
2019-06-26T04:44:17.870Z,943.3
2019-06-26T04:45:11.944Z,943.3
2019-06-26T04:46:16.051Z,943.3
2019-06-26T04:47:14.105Z,943.3
2019-06-26T04:48:15.235Z,943.3
2019-06-26T04:49:27.308Z,943.2
2019-06-26T04:50:21.065Z,943.3
2019-06-26T04:51:20.834Z,943.3
2019-06-26T04:52:21.607Z,943.3
2019-06-26T04:53:19.661Z,943.3
2019-06-26T04:56:16.677Z,943.3
2019-06-26T04:57:16.956Z,943.2
2019-06-26T04:58:21.225Z,943.3
2019-06-26T04:59:29.744Z,943.3
2019-06-26T05:00:27.652Z,943.3
2019-06-26T05:01:28.793Z,942.9
2019-06-26T05:02:26.062Z,943.3
2019-06-26T05:03:24.117Z,943.4
2019-06-26T05:04:25.249Z,943.3
2019-06-26T05:06:04.180Z,943.3
2019-06-26T05:06:29.652Z,943.3
2019-06-26T05:07:29.994Z,943.3
2019-06-26T05:08:28.048Z,943.3
2019-06-26T05:09:31.640Z,943.3
2019-06-26T05:10:48.213Z,943.3
2019-06-26T05:11:48.536Z,943.2
2019-06-26T05:12:32.461Z,943.3
2019-06-26T05:13:33.589Z,943.4
2019-06-26T05:14:45.125Z,943.3
2019-06-26T05:15:38.868Z,943.4
2019-06-26T05:16:36.927Z,943.2
2019-06-26T05:20:16.655Z,943.2
2019-06-26T05:20:34.834Z,943.3
2019-06-26T05:21:38.871Z,943.3
2019-06-26T05:22:38.673Z,943.3
2019-06-26T05:23:36.774Z,943.3
2019-06-26T05:24:40.842Z,943.2
2019-06-26T05:25:46.163Z,943.4
2019-06-26T05:26:52.091Z,943.4
2019-06-26T05:27:41.063Z,943.2
2019-06-26T05:28:42.196Z,943.3
2019-06-26T05:30:21.199Z,943.4
2019-06-26T05:30:43.959Z,943.3
2019-06-26T05:31:47.192Z,943.4
2019-06-26T05:32:45.452Z,943.4
2019-06-26T05:33:46.695Z,943.4
2019-06-26T05:34:50.781Z,943.4
2019-06-26T05:35:48.871Z,943.5
2019-06-26T05:36:52.531Z,943.5
2019-06-26T05:37:50.587Z,943.3
2019-06-26T05:38:51.715Z,943.5
2019-06-26T05:40:19.739Z,943.5
2019-06-26T05:40:53.578Z,941.7
2019-06-26T05:42:14.909Z,943.4
2019-06-26T05:42:57.550Z,943.4
2019-06-26T05:43:57.832Z,943.5
2019-06-26T05:44:59.649Z,943.4
2019-06-26T05:45:57.761Z,943.4
2019-06-26T05:46:58.888Z,943.4
2019-06-26T05:48:00.013Z,943.5
2019-06-26T05:49:04.285Z,943.5
2019-06-26T05:50:02.342Z,943.5
2019-06-26T05:51:03.989Z,943.5
2019-06-26T05:52:06.950Z,943.5
2019-06-26T05:53:05.007Z,943.5
2019-06-26T05:54:19.273Z,943.4
2019-06-26T05:55:09.976Z,943.5
2019-06-26T05:56:14.763Z,943.5
2019-06-26T05:57:11.583Z,943.5
2019-06-26T05:58:27.131Z,943.5
2019-06-26T05:59:18.033Z,943.6
2019-06-26T06:00:48.679Z,943.5
2019-06-26T06:01:11.448Z,943.6
2019-06-26T06:02:15.341Z,943
2019-06-26T06:03:13.406Z,943.6
2019-06-26T06:04:14.524Z,943.5
2019-06-26T06:05:15.649Z,943.5
2019-06-26T06:06:16.779Z,942.5
2019-06-26T06:07:20.750Z,943.5
2019-06-26T06:08:21.097Z,943.6
2019-06-26T06:09:20.167Z,943.5
2019-06-26T06:10:21.300Z,943.7
2019-06-26T06:11:22.430Z,943.6
2019-06-26T06:12:29.736Z,943
2019-06-26T06:13:33.417Z,943.6
2019-06-26T06:14:24.414Z,943.5
2019-06-26T06:15:28.523Z,943.7
2019-06-26T06:16:26.576Z,943.1
2019-06-26T06:17:27.721Z,943.5
2019-06-26T06:18:28.854Z,943.6
2019-06-26T06:19:29.995Z,943.7
2019-06-26T06:20:52.708Z,943.7
2019-06-26T06:21:34.305Z,943.7
2019-06-26T06:22:32.651Z,943.6
2019-06-26T06:23:33.788Z,943.6
2019-06-26T06:24:42.620Z,943.8
2019-06-26T06:25:35.678Z,943.7
2019-06-26T06:26:47.314Z,943.8
2019-06-26T06:27:38.111Z,943.6
2019-06-26T06:28:38.707Z,943.7
2019-06-26T06:29:39.288Z,943.7
2019-06-26T06:30:39.363Z,943.6
2019-06-26T06:31:40.493Z,943.5
2019-06-26T06:32:48.246Z,942.6
2019-06-26T06:33:45.786Z,943.7
2019-06-26T06:34:42.880Z,943.6
2019-06-26T06:35:47.479Z,943.6
2019-06-26T06:36:50.254Z,943.5
2019-06-26T06:37:52.578Z,943.8
2019-06-26T06:38:52.500Z,942.7
2019-06-26T06:39:47.536Z,943.8
2019-06-26T06:40:48.667Z,943.8
2019-06-26T06:41:52.513Z,943.8
2019-06-26T06:42:52.492Z,943.8
2019-06-26T06:43:54.308Z,943.8
2019-06-26T06:44:52.375Z,943.2
2019-06-26T06:45:53.529Z,943.8
2019-06-26T06:47:03.654Z,943.7
2019-06-26T06:47:55.976Z,943.8
2019-06-26T06:48:57.108Z,943.7
2019-06-26T06:49:58.234Z,943.7
2019-06-26T06:50:59.360Z,943.7
2019-06-26T06:52:11.458Z,943.8
2019-06-26T06:54:58.314Z,943.8
2019-06-26T06:55:58.801Z,943.8
2019-06-26T06:57:06.978Z,943.8
2019-06-26T06:58:04.004Z,943.8
2019-06-26T06:59:04.772Z,943.8
2019-06-26T07:00:02.874Z,943.8
2019-06-26T07:01:09.988Z,943.8
2019-06-26T07:02:05.023Z,943.8
2019-06-26T07:03:06.171Z,943.9
2019-06-26T07:04:10.736Z,943.8
2019-06-26T07:05:08.789Z,943.9
2019-06-26T07:06:12.674Z,943.9
2019-06-26T07:07:10.732Z,943.8
2019-06-26T07:08:14.839Z,943.8
2019-06-26T07:09:12.890Z,943.8
2019-06-26T07:10:14.021Z,943.8
2019-06-26T07:11:15.212Z,943.9
2019-06-26T07:12:16.303Z,943.8
2019-06-26T07:13:20.695Z,943.8
2019-06-26T07:14:21.496Z,944.1
2019-06-26T07:15:19.554Z,944
2019-06-26T07:16:23.590Z,944
2019-06-26T07:17:21.479Z,944
2019-06-26T07:18:21.657Z,944
2019-06-26T07:19:22.795Z,944
2019-06-26T07:20:23.924Z,944
2019-06-26T07:21:25.046Z,944.1
2019-06-26T07:22:29.170Z,944
2019-06-26T07:24:30.960Z,944.1
2019-06-26T07:25:31.834Z,944.1
2019-06-26T07:26:31.834Z,944.1
2019-06-26T07:27:32.630Z,944.1
2019-06-26T07:28:33.425Z,944.1
2019-06-26T07:29:31.530Z,943.2
2019-06-26T07:30:32.644Z,944.1
2019-06-26T07:31:43.007Z,944.1
2019-06-26T07:32:41.787Z,944.1
2019-06-26T07:33:35.853Z,944.1
2019-06-26T07:34:37.495Z,944.2
2019-06-26T07:35:37.797Z,944.1
2019-06-26T07:37:38.846Z,944.2
2019-06-26T07:38:43.046Z,944.2
2019-06-26T07:40:18.538Z,944.1
2019-06-26T07:40:42.811Z,944
2019-06-26T07:41:42.899Z,944.2
2019-06-26T07:42:46.774Z,944.2
2019-06-26T07:43:55.627Z,944.2
2019-06-26T07:44:45.607Z,944.1
2019-06-26T07:45:50.441Z,944.1
2019-06-26T07:46:58.046Z,944.1
2019-06-26T07:47:59.938Z,944.2
2019-06-26T07:48:52.661Z,944.2
2019-06-26T07:51:08.683Z,944.2
2019-06-26T07:52:51.894Z,944.1
2019-06-26T07:53:49.535Z,944.2
2019-06-26T07:55:01.740Z,944.3
2019-06-26T07:55:57.489Z,944.3
2019-06-26T07:56:55.810Z,944.3
2019-06-26T07:58:01.659Z,944.2
2019-06-26T07:58:57.726Z,944.1
2019-06-26T07:59:58.546Z,944.3
2019-06-26T08:01:14.471Z,944.2
2019-06-26T08:01:57.405Z,943.9
2019-06-26T08:03:04.161Z,944.2
2019-06-26T08:03:58.884Z,944.2
2019-06-26T08:05:00.030Z,944.2
2019-06-26T08:06:01.166Z,944.3
2019-06-26T08:07:07.654Z,944.3
2019-06-26T08:08:04.103Z,944.2
2019-06-26T08:09:05.226Z,944.2
2019-06-26T08:10:08.842Z,944.2
2019-06-26T08:11:09.610Z,944.2
2019-06-26T08:12:07.670Z,944.2
2019-06-26T08:13:21.954Z,944.3
2019-06-26T08:16:06.878Z,944.4
2019-06-26T08:17:16.842Z,944.4
2019-06-26T08:18:10.563Z,944.4
2019-06-26T08:19:11.339Z,944.3
2019-06-26T08:20:09.401Z,944.3
2019-06-26T08:21:13.554Z,944.4
2019-06-26T08:22:19.476Z,944.4
2019-06-26T08:23:12.483Z,944.4
2019-06-26T08:24:13.610Z,944.2
2019-06-26T08:25:16.964Z,944.2
2019-06-26T08:26:16.045Z,944.4
2019-06-26T08:27:16.329Z,944.4
2019-06-26T08:28:17.456Z,944.3
2019-06-26T08:29:36.053Z,944.4
2019-06-26T08:30:19.984Z,944.4
2019-06-26T08:31:21.263Z,944.4
2019-06-26T08:32:25.773Z,944.4
2019-06-26T08:33:25.389Z,944.4
2019-06-26T08:34:32.360Z,944.4
2019-06-26T08:35:28.085Z,943.8
2019-06-26T08:36:28.896Z,944.4
2019-06-26T08:37:44.856Z,944.4
2019-06-26T08:38:27.796Z,944.3
2019-06-26T08:39:31.901Z,944.5
2019-06-26T08:40:29.958Z,944.4
2019-06-26T08:44:10.781Z,944.4
2019-06-26T08:44:32.552Z,944.3
2019-06-26T08:45:32.839Z,944.3
2019-06-26T08:46:36.759Z,944.4
2019-06-26T08:47:39.232Z,944.3
2019-06-26T08:48:40.291Z,944.4
2019-06-26T08:49:44.103Z,944.4
2019-06-26T08:50:38.821Z,944.4
2019-06-26T08:51:36.871Z,944.4
2019-06-26T08:52:40.493Z,942.8
2019-06-26T08:53:38.556Z,944.4
2019-06-26T08:54:39.676Z,944.5
2019-06-26T08:55:43.509Z,944.3
2019-06-26T08:56:41.569Z,944.4
2019-06-26T08:57:42.733Z,944.4
2019-06-26T08:58:43.864Z,944.3
2019-06-26T08:59:44.998Z,944.3
2019-06-26T09:01:23.963Z,944.2
2019-06-26T09:01:46.705Z,944.4
2019-06-26T09:04:25.485Z,944.4
2019-06-26T09:06:07.423Z,944.4
2019-06-26T09:08:45.956Z,944.5
2019-06-26T09:09:45.928Z,944.4
2019-06-26T09:10:51.231Z,944.5
2019-06-26T09:11:45.264Z,944.4
2019-06-26T09:12:49.367Z,944.4
2019-06-26T09:14:04.917Z,944.3
2019-06-26T09:14:50.062Z,944.4
2019-06-26T09:15:49.990Z,944.4
2019-06-26T09:17:31.406Z,944.5
2019-06-26T09:17:54.545Z,944.4
2019-06-26T09:18:52.636Z,944.3
2019-06-26T09:20:01.546Z,944.5
2019-06-26T09:20:53.637Z,944.5
2019-06-26T09:22:02.752Z,943.4
2019-06-26T09:23:13.261Z,944.5
2019-06-26T09:23:58.957Z,944.4
2019-06-26T09:25:00.568Z,944.5
2019-06-26T09:25:57.655Z,944.4
2019-06-26T09:27:01.904Z,944.5
2019-06-26T09:27:59.970Z,944.5
2019-06-26T09:29:01.127Z,944.5
2019-06-26T09:30:01.917Z,944.5
2019-06-26T09:31:03.051Z,944.4
2019-06-26T09:32:04.151Z,944.4
2019-06-26T09:33:05.268Z,944.5
2019-06-26T09:34:06.428Z,944.5
2019-06-26T09:35:15.557Z,944.6
2019-06-26T09:36:08.561Z,944.5
2019-06-26T09:37:12.737Z,944.6
2019-06-26T09:38:28.335Z,944.6
2019-06-26T09:39:15.658Z,944.4
2019-06-26T09:40:11.917Z,944.5
2019-06-26T09:41:13.046Z,944.5
2019-06-26T09:42:21.932Z,944.5
2019-06-26T09:43:22.947Z,944.5
2019-06-26T09:44:19.316Z,944.6
2019-06-26T09:45:17.443Z,944.5
2019-06-26T09:46:21.036Z,944.6
2019-06-26T09:48:51.323Z,944.5
2019-06-26T09:50:16.962Z,944.6
2019-06-26T09:53:16.820Z,944.6
2019-06-26T09:54:14.792Z,944.4
2019-06-26T09:55:15.914Z,944.5
2019-06-26T09:56:17.053Z,944.5
2019-06-26T09:57:21.702Z,944.5
2019-06-26T09:58:26.136Z,944.6
2019-06-26T09:59:28.052Z,944.6
2019-06-26T10:00:21.064Z,944.5
2019-06-26T10:01:22.236Z,944.6
2019-06-26T10:02:26.317Z,944.6
2019-06-26T10:03:24.881Z,943.6
2019-06-26T10:06:22.243Z,944.6
2019-06-26T10:09:18.849Z,944.6
2019-06-26T10:11:05.662Z,944.6
2019-06-26T10:11:37.784Z,944.5
2019-06-26T10:12:21.752Z,944.5
2019-06-26T10:13:25.880Z,944.5
2019-06-26T10:14:47.584Z,944.6
2019-06-26T10:15:27.078Z,944.6
2019-06-26T10:16:28.871Z,944.6
2019-06-26T10:17:29.689Z,944.5
2019-06-26T10:18:27.746Z,944.5
2019-06-26T10:19:34.878Z,944.5
2019-06-26T10:20:29.790Z,944.5
2019-06-26T10:21:34.087Z,944.6
2019-06-26T10:22:32.192Z,944.5
2019-06-26T10:23:42.772Z,944.5
2019-06-26T10:24:37.786Z,944.5
2019-06-26T10:25:46.064Z,944.5
2019-06-26T10:26:39.760Z,944.5
2019-06-26T10:27:37.858Z,944.5
2019-06-26T10:28:44.507Z,944.5
2019-06-26T10:29:42.276Z,944.5
2019-06-26T10:32:40.641Z,944.5
2019-06-26T10:33:38.266Z,944.4
2019-06-26T10:35:57.808Z,944.5
2019-06-26T10:37:40.507Z,944.5
2019-06-26T10:38:38.473Z,944.5
2019-06-26T10:39:38.598Z,944.5
2019-06-26T10:40:42.674Z,944.5
2019-06-26T10:41:40.735Z,944.6
2019-06-26T10:42:48.916Z,944.6
2019-06-26T10:43:46.236Z,944.5
2019-06-26T10:44:44.324Z,944.6
2019-06-26T10:45:45.454Z,944.5
2019-06-26T10:46:46.588Z,944.5
2019-06-26T10:47:57.150Z,944.5
2019-06-26T10:48:50.675Z,944.5
2019-06-26T10:49:51.121Z,944.5
2019-06-26T10:50:58.068Z,944.5
2019-06-26T10:52:09.162Z,944.3
2019-06-26T10:52:54.834Z,944.5
2019-06-26T10:53:55.655Z,944.4
2019-06-26T10:54:53.776Z,944.4
2019-06-26T10:55:54.892Z,944.4
2019-06-26T10:56:56.019Z,944.4
2019-06-26T10:58:35.093Z,944.5
2019-06-26T11:00:58.042Z,944.5
2019-06-26T11:03:51.526Z,944.5
2019-06-26T11:04:52.139Z,944.5
2019-06-26T11:05:53.270Z,944.4
2019-06-26T11:06:54.406Z,944.4
2019-06-26T11:07:57.753Z,944.5
2019-06-26T11:08:59.071Z,944.4
2019-06-26T11:09:58.132Z,944.4
2019-06-26T11:10:59.262Z,944.4
2019-06-26T11:12:00.461Z,944.4
2019-06-26T11:13:04.557Z,944.4
2019-06-26T11:14:04.869Z,944.5
2019-06-26T11:15:03.874Z,944.4
2019-06-26T11:16:04.998Z,944.4
2019-06-26T11:17:09.218Z,944.4
2019-06-26T11:18:07.281Z,944.5
2019-06-26T11:19:08.562Z,944.4
2019-06-26T11:20:10.338Z,944.4
2019-06-26T11:21:10.473Z,944.4
2019-06-26T11:22:11.604Z,944.4
2019-06-26T11:23:15.451Z,944.4
2019-06-26T11:24:13.548Z,944.3
2019-06-26T11:25:13.757Z,944.4
2019-06-26T11:26:14.879Z,944.2
2019-06-26T11:27:22.763Z,944.5
2019-06-26T11:28:16.793Z,944.5
2019-06-26T11:29:17.944Z,944.4
2019-06-26T11:30:19.066Z,944.4
2019-06-26T11:31:20.697Z,944.4
2019-06-26T11:32:20.815Z,944.4
2019-06-26T11:33:21.939Z,944.4
2019-06-26T11:34:26.062Z,944.4
2019-06-26T11:35:23.500Z,944.4
2019-06-26T11:36:32.409Z,944.3
2019-06-26T11:37:31.229Z,944.2
2019-06-26T11:38:29.078Z,944.3
2019-06-26T11:39:29.896Z,944.3
2019-06-26T11:40:37.569Z,944.4
2019-06-26T11:41:28.562Z,944.3
2019-06-26T11:42:32.915Z,944.3
2019-06-26T11:43:31.003Z,944.4
2019-06-26T11:44:35.429Z,944.4
2019-06-26T11:45:32.893Z,944.3
2019-06-26T11:46:35.736Z,944.3
2019-06-26T11:47:34.971Z,944.2
2019-06-26T11:48:44.274Z,944.2
2019-06-26T11:49:37.358Z,944.3
2019-06-26T11:50:38.501Z,944.3
2019-06-26T11:51:39.626Z,944.3
2019-06-26T11:52:40.757Z,944
2019-06-26T11:53:49.153Z,944.2
2019-06-26T11:54:43.474Z,944.3
2019-06-26T11:55:45.920Z,944.3
2019-06-26T11:56:44.985Z,943.3
2019-06-26T11:57:46.124Z,944.2
2019-06-26T11:58:49.993Z,944.2
2019-06-26T11:59:52.153Z,944.1
2019-06-26T12:00:52.131Z,944.1
2019-06-26T12:01:57.654Z,944.2
2019-06-26T12:02:58.023Z,944
2019-06-26T12:03:53.802Z,944.2
2019-06-26T12:04:54.566Z,944.1
2019-06-26T12:06:10.675Z,944
2019-06-26T12:06:59.697Z,944.2
2019-06-26T12:08:07.112Z,944.1
2019-06-26T12:08:59.156Z,944.2
2019-06-26T12:10:00.310Z,944.1
2019-06-26T12:11:01.413Z,944.1
2019-06-26T12:12:02.546Z,944.1
2019-06-26T12:13:10.613Z,944.1
2019-06-26T12:14:04.635Z,944.1
2019-06-26T12:15:11.491Z,944.1
2019-06-26T12:16:43.556Z,944
2019-06-26T12:17:06.294Z,944.1
2019-06-26T12:18:07.436Z,944.1
2019-06-26T12:19:08.570Z,944.1
2019-06-26T12:20:18.305Z,944
2019-06-26T12:21:11.108Z,944.1
2019-06-26T12:23:13.196Z,944
2019-06-26T12:24:14.351Z,944.1
2019-06-26T12:25:15.504Z,944
2019-06-26T12:26:16.357Z,944
2019-06-26T12:27:17.497Z,944.1
2019-06-26T12:28:21.867Z,944
2019-06-26T12:29:22.659Z,943.1
2019-06-26T12:30:20.901Z,944
2019-06-26T12:31:21.292Z,944
2019-06-26T12:32:22.478Z,944
2019-06-26T12:33:26.751Z,943.9
2019-06-26T12:34:32.221Z,944
2019-06-26T12:35:26.270Z,943.9
2019-06-26T12:36:26.798Z,944
2019-06-26T12:37:37.853Z,944
2019-06-26T12:38:32.303Z,944
2019-06-26T12:39:33.079Z,943.9
2019-06-26T12:40:34.431Z,943.9
2019-06-26T12:41:32.519Z,944
2019-06-26T12:42:33.651Z,943.9
2019-06-26T12:43:37.046Z,944
2019-06-26T12:45:54.449Z,943.9
2019-06-26T12:47:43.427Z,943.9
2019-06-26T12:51:15.941Z,943.9
2019-06-26T12:53:27.441Z,943.8
2019-06-26T12:54:28.358Z,943.7
2019-06-26T12:55:39.945Z,943.8
2019-06-26T12:56:30.349Z,943.8
2019-06-26T12:57:30.614Z,943.7
2019-06-26T12:58:34.588Z,943.8
2019-06-26T12:59:32.676Z,943.7
2019-06-26T13:00:36.255Z,943.7
2019-06-26T13:01:34.339Z,943.2
2019-06-26T13:02:35.497Z,943.8
2019-06-26T13:03:36.612Z,943.8
2019-06-26T13:04:36.873Z,943.7
2019-06-26T13:05:37.997Z,943.8
2019-06-26T13:06:39.129Z,943.7
2019-06-26T13:07:40.279Z,943.7
2019-06-26T13:08:58.951Z,943.7
2019-06-26T13:09:44.189Z,943.8
2019-06-26T13:10:49.267Z,943.7
2019-06-26T13:11:44.197Z,943.6
2019-06-26T13:12:54.569Z,943.6
2019-06-26T13:14:02.321Z,943.6
2019-06-26T13:14:47.275Z,943.7
2019-06-26T13:15:51.517Z,943.7
2019-06-26T13:16:52.340Z,943.7
2019-06-26T13:18:01.322Z,943.7
2019-06-26T13:18:51.479Z,943.7
2019-06-26T13:19:55.577Z,943.8
2019-06-26T13:20:53.913Z,943.7
2019-06-26T13:21:55.042Z,943.7
2019-06-26T13:22:56.217Z,943.3
2019-06-26T13:23:57.349Z,943.6
2019-06-26T13:26:15.747Z,943.7
2019-06-26T13:27:58.932Z,943.6
2019-06-26T13:30:55.599Z,943.6
2019-06-26T13:32:00.544Z,943.6
2019-06-26T13:32:53.578Z,943.6
2019-06-26T13:33:54.725Z,943.6
2019-06-26T13:34:58.625Z,943.6
2019-06-26T13:35:56.695Z,943.7
2019-06-26T13:36:57.870Z,943.6
2019-06-26T13:37:59.027Z,943.6
2019-06-26T13:39:38.199Z,943.6
2019-06-26T13:40:25.426Z,943.6
2019-06-26T13:41:23.217Z,943.6
2019-06-26T13:44:02.460Z,943.6
2019-06-26T13:45:02.936Z,943.5
2019-06-26T13:46:04.273Z,943.6
2019-06-26T13:47:08.075Z,943.5
2019-06-26T13:48:03.606Z,943.6
2019-06-26T13:49:03.726Z,943.5
2019-06-26T13:50:04.895Z,943.7
2019-06-26T13:51:09.580Z,943.6
2019-06-26T13:52:07.122Z,943.5
2019-06-26T13:53:11.489Z,943.6
2019-06-26T13:54:10.091Z,943.4
2019-06-26T13:57:10.688Z,943.6
2019-06-26T13:58:08.157Z,943.5
2019-06-26T13:59:09.287Z,943.4
2019-06-26T14:00:14.197Z,943.5
2019-06-26T14:01:23.089Z,943.5
2019-06-26T14:02:15.320Z,943.4
2019-06-26T14:03:20.218Z,943.5
2019-06-26T14:04:14.242Z,942.5
2019-06-26T14:05:15.362Z,942.8
2019-06-26T14:06:16.523Z,943.4
2019-06-26T14:07:17.651Z,943.5
2019-06-26T14:08:18.690Z,943.5
2019-06-26T14:09:19.299Z,943.5
2019-06-26T14:10:22.169Z,943.4
2019-06-26T14:11:37.764Z,943.5
2019-06-26T14:12:24.071Z,943.5
2019-06-26T14:13:22.126Z,943.5
2019-06-26T14:14:37.802Z,943.5
2019-06-26T14:15:24.374Z,943.5
2019-06-26T14:16:29.876Z,943.5
2019-06-26T14:17:26.120Z,943.4
2019-06-26T14:18:29.487Z,943.5
2019-06-26T14:19:30.416Z,943.5
2019-06-26T14:20:28.478Z,942.9
2019-06-26T14:21:30.494Z,943.4
2019-06-26T14:22:30.798Z,943.5
2019-06-26T14:23:31.930Z,943.5
2019-06-26T14:24:33.557Z,943.4